Terminal Aerodrome Forecast
Issued by NWS Midland/Odessa, TX

Home | Current Version | Previous Version | Text Only | Print | Product List | Glossary On
Versions: 1 2 3 4 5 6 7 8 9 10 11 12 13 14 15 16 17
472
FTUS44 KMAF 291724
TAFMAF
TAF
KMAF 291724Z 2918/3018 06011KT P6SM SKC
     FM300100 10006KT P6SM FEW250
     FM301500 15009KT P6SM SCT120=

USA.gov is the U.S. government's official web portal to all federal, state and local government web resources and services.